sensor_id;sensor_type;location;lat;lon;timestamp;temperature;humidity
1468;DHT22;727;48.892;9.544;2024-01-27T00:02:09;1.20;99.90
1468;DHT22;727;48.892;9.544;2024-01-27T00:04:36;1.10;99.90
1468;DHT22;727;48.892;9.544;2024-01-27T00:07:04;1.00;99.90
1468;DHT22;727;48.892;9.544;2024-01-27T00:09:32;0.90;99.90
1468;DHT22;727;48.892;9.544;2024-01-27T00:11:59;0.90;99.90
1468;DHT22;727;48.892;9.544;2024-01-27T00:14:27;0.80;99.90
1468;DHT22;727;48.892;9.544;2024-01-27T00:16:53;0.90;99.90
1468;DHT22;727;48.892;9.544;2024-01-27T00:19:20;0.80;99.90
1468;DHT22;727;48.892;9.544;2024-01-27T00:21:47;0.80;99.90
1468;DHT22;727;48.892;9.544;2024-01-27T00:24:13;0.80;99.90
1468;DHT22;727;48.892;9.544;2024-01-27T00:26:42;0.80;99.90
1468;DHT22;727;48.892;9.544;2024-01-27T00:29:09;0.80;99.90
1468;DHT22;727;48.892;9.544;2024-01-27T00:31:36;0.80;99.90
1468;DHT22;727;48.892;9.544;2024-01-27T00:34:02;0.80;99.90
1468;DHT22;727;48.892;9.544;2024-01-27T00:36:29;0.70;99.90
1468;DHT22;727;48.892;9.544;2024-01-27T00:38:56;0.70;99.90
1468;DHT22;727;48.892;9.544;2024-01-27T00:41:22;0.70;99.90
1468;DHT22;727;48.892;9.544;2024-01-27T00:43:49;0.70;99.90
1468;DHT22;727;48.892;9.544;2024-01-27T00:46:16;0.60;99.90
1468;DHT22;727;48.892;9.544;2024-01-27T00:48:43;0.60;99.90
1468;DHT22;727;48.892;9.544;2024-01-27T00:51:09;0.60;99.90
1468;DHT22;727;48.892;9.544;2024-01-27T00:53:36;0.60;99.90
1468;DHT22;727;48.892;9.544;2024-01-27T00:56:03;0.60;99.90
1468;DHT22;727;48.892;9.544;2024-01-27T00:58:30;0.60;99.90
1468;DHT22;727;48.892;9.544;2024-01-27T01:00:58;0.60;99.90
1468;DHT22;727;48.892;9.544;2024-01-27T01:03:24;0.60;99.90
1468;DHT22;727;48.892;9.544;2024-01-27T01:05:52;0.50;99.90
1468;DHT22;727;48.892;9.544;2024-01-27T01:08:18;0.50;99.90
1468;DHT22;727;48.892;9.544;2024-01-27T01:10:45;0.50;99.90
1468;DHT22;727;48.892;9.544;2024-01-27T01:13:12;0.40;99.90
1468;DHT22;727;48.892;9.544;2024-01-27T01:15:38;0.40;99.90
1468;DHT22;727;48.892;9.544;2024-01-27T01:18:07;0.40;99.90
1468;DHT22;727;48.892;9.544;2024-01-27T01:20:34;0.40;99.90
1468;DHT22;727;48.892;9.544;2024-01-27T01:22:59;0.50;99.90
1468;DHT22;727;48.892;9.544;2024-01-27T01:25:26;0.50;99.90
1468;DHT22;727;48.892;9.544;2024-01-27T01:27:52;0.50;99.90
1468;DHT22;727;48.892;9.544;2024-01-27T01:30:19;0.50;99.90
1468;DHT22;727;48.892;9.544;2024-01-27T01:32:46;0.50;99.90
1468;DHT22;727;48.892;9.544;2024-01-27T01:35:14;0.40;99.90
1468;DHT22;727;48.892;9.544;2024-01-27T01:37:41;0.40;99.90
1468;DHT22;727;48.892;9.544;2024-01-27T01:40:08;0.30;99.90
1468;DHT22;727;48.892;9.544;2024-01-27T01:42:35;0.30;99.90
1468;DHT22;727;48.892;9.544;2024-01-27T01:45:02;0.30;99.90
1468;DHT22;727;48.892;9.544;2024-01-27T01:47:28;0.20;99.90
1468;DHT22;727;48.892;9.544;2024-01-27T01:49:55;0.20;99.90
1468;DHT22;727;48.892;9.544;2024-01-27T01:52:24;0.20;99.90
1468;DHT22;727;48.892;9.544;2024-01-27T01:54:51;0.20;99.90
1468;DHT22;727;48.892;9.544;2024-01-27T01:57:18;0.20;99.90
1468;DHT22;727;48.892;9.544;2024-01-27T01:59:45;0.20;99.90
1468;DHT22;727;48.892;9.544;2024-01-27T02:02:12;0.10;99.90
1468;DHT22;727;48.892;9.544;2024-01-27T02:04:40;0.10;99.90
1468;DHT22;727;48.892;9.544;2024-01-27T02:07:07;0.00;99.90
1468;DHT22;727;48.892;9.544;2024-01-27T02:09:35;0.00;99.90
1468;DHT22;727;48.892;9.544;2024-01-27T02:12:02;-0.10;99.90
1468;DHT22;727;48.892;9.544;2024-01-27T02:14:29;-0.10;99.90
1468;DHT22;727;48.892;9.544;2024-01-27T02:16:56;-0.10;99.90
1468;DHT22;727;48.892;9.544;2024-01-27T02:19:23;-0.10;99.90
1468;DHT22;727;48.892;9.544;2024-01-27T02:21:50;-0.10;99.90
1468;DHT22;727;48.892;9.544;2024-01-27T02:24:18;-0.10;99.90
1468;DHT22;727;48.892;9.544;2024-01-27T02:26:44;-0.10;99.90
1468;DHT22;727;48.892;9.544;2024-01-27T02:29:11;-0.10;99.90
1468;DHT22;727;48.892;9.544;2024-01-27T02:31:38;-0.10;99.90
1468;DHT22;727;48.892;9.544;2024-01-27T02:34:05;-0.10;99.90
1468;DHT22;727;48.892;9.544;2024-01-27T02:36:31;-0.10;99.90
1468;DHT22;727;48.892;9.544;2024-01-27T02:38:58;-0.10;99.90
1468;DHT22;727;48.892;9.544;2024-01-27T02:41:26;-0.10;99.90
1468;DHT22;727;48.892;9.544;2024-01-27T02:43:53;-0.20;99.90
1468;DHT22;727;48.892;9.544;2024-01-27T02:46:19;-0.20;99.90
1468;DHT22;727;48.892;9.544;2024-01-27T02:48:46;-0.30;99.90
1468;DHT22;727;48.892;9.544;2024-01-27T02:51:13;-0.30;99.90
1468;DHT22;727;48.892;9.544;2024-01-27T02:53:40;-0.30;99.90
1468;DHT22;727;48.892;9.544;2024-01-27T02:56:07;-0.30;99.90
1468;DHT22;727;48.892;9.544;2024-01-27T02:58:35;-0.30;99.90
1468;DHT22;727;48.892;9.544;2024-01-27T03:01:02;-0.30;99.90
1468;DHT22;727;48.892;9.544;2024-01-27T03:03:29;-0.40;99.90
1468;DHT22;727;48.892;9.544;2024-01-27T03:05:56;-0.30;99.90
1468;DHT22;727;48.892;9.544;2024-01-27T03:08:23;-0.40;99.90
1468;DHT22;727;48.892;9.544;2024-01-27T03:10:50;-0.30;99.90
1468;DHT22;727;48.892;9.544;2024-01-27T03:13:17;-0.20;99.90
1468;DHT22;727;48.892;9.544;2024-01-27T03:15:45;-0.20;99.90
1468;DHT22;727;48.892;9.544;2024-01-27T03:18:12;-0.20;99.90
1468;DHT22;727;48.892;9.544;2024-01-27T03:20:39;-0.10;99.90
1468;DHT22;727;48.892;9.544;2024-01-27T03:23:05;-0.10;99.90
1468;DHT22;727;48.892;9.544;2024-01-27T03:25:33;0.00;99.90
1468;DHT22;727;48.892;9.544;2024-01-27T03:28:00;0.00;99.90
1468;DHT22;727;48.892;9.544;2024-01-27T03:30:27;0.00;99.90
1468;DHT22;727;48.892;9.544;2024-01-27T03:32:55;0.00;99.90
1468;DHT22;727;48.892;9.544;2024-01-27T03:35:22;0.00;99.90
1468;DHT22;727;48.892;9.544;2024-01-27T03:37:49;0.00;99.90
1468;DHT22;727;48.892;9.544;2024-01-27T03:40:17;0.10;99.90
1468;DHT22;727;48.892;9.544;2024-01-27T03:42:43;0.10;99.90
1468;DHT22;727;48.892;9.544;2024-01-27T03:45:10;0.10;99.90
1468;DHT22;727;48.892;9.544;2024-01-27T03:47:37;0.00;99.90
1468;DHT22;727;48.892;9.544;2024-01-27T03:50:06;0.00;99.90
1468;DHT22;727;48.892;9.544;2024-01-27T03:52:34;-0.10;99.90
1468;DHT22;727;48.892;9.544;2024-01-27T03:55:01;-0.10;99.90
1468;DHT22;727;48.892;9.544;2024-01-27T03:57:28;-0.10;99.90
1468;DHT22;727;48.892;9.544;2024-01-27T03:59:54;-0.10;99.90
1468;DHT22;727;48.892;9.544;2024-01-27T04:02:21;-0.10;99.90
1468;DHT22;727;48.892;9.544;2024-01-27T04:04:48;0.00;99.90
1468;DHT22;727;48.892;9.544;2024-01-27T04:07:16;-0.10;99.90
1468;DHT22;727;48.892;9.544;2024-01-27T04:09:43;-0.10;99.90
1468;DHT22;727;48.892;9.544;2024-01-27T04:12:09;-0.20;99.90
1468;DHT22;727;48.892;9.544;2024-01-27T04:14:36;-0.20;99.90
1468;DHT22;727;48.892;9.544;2024-01-27T04:17:03;-0.10;99.90
1468;DHT22;727;48.892;9.544;2024-01-27T04:19:29;-0.10;99.90
1468;DHT22;727;48.892;9.544;2024-01-27T04:21:55;-0.10;99.90
1468;DHT22;727;48.892;9.544;2024-01-27T04:24:23;0.00;99.90
1468;DHT22;727;48.892;9.544;2024-01-27T04:26:50;0.00;99.90
1468;DHT22;727;48.892;9.544;2024-01-27T04:29:17;0.00;99.90
1468;DHT22;727;48.892;9.544;2024-01-27T04:31:43;-0.10;99.90
1468;DHT22;727;48.892;9.544;2024-01-27T04:34:10;-0.10;99.90
1468;DHT22;727;48.892;9.544;2024-01-27T04:36:37;-0.10;99.90
1468;DHT22;727;48.892;9.544;2024-01-27T04:39:03;-0.10;99.90
1468;DHT22;727;48.892;9.544;2024-01-27T04:41:32;-0.10;99.90
1468;DHT22;727;48.892;9.544;2024-01-27T04:43:58;-0.20;99.90
1468;DHT22;727;48.892;9.544;2024-01-27T04:46:25;-0.30;99.90
1468;DHT22;727;48.892;9.544;2024-01-27T04:48:52;-0.30;99.90
1468;DHT22;727;48.892;9.544;2024-01-27T04:51:18;-0.30;99.90
1468;DHT22;727;48.892;9.544;2024-01-27T04:53:45;-0.40;99.90
1468;DHT22;727;48.892;9.544;2024-01-27T04:56:12;-0.40;99.90
1468;DHT22;727;48.892;9.544;2024-01-27T04:58:40;-0.40;99.90
1468;DHT22;727;48.892;9.544;2024-01-27T05:01:07;-0.40;99.90
1468;DHT22;727;48.892;9.544;2024-01-27T05:03:33;-0.40;99.90
1468;DHT22;727;48.892;9.544;2024-01-27T05:06:01;-0.50;99.90
1468;DHT22;727;48.892;9.544;2024-01-27T05:08:27;-0.50;99.90
1468;DHT22;727;48.892;9.544;2024-01-27T05:10:54;-0.50;99.90
1468;DHT22;727;48.892;9.544;2024-01-27T05:13:21;-0.60;99.90
1468;DHT22;727;48.892;9.544;2024-01-27T05:15:49;-0.60;99.90
1468;DHT22;727;48.892;9.544;2024-01-27T05:18:15;-0.60;99.90
1468;DHT22;727;48.892;9.544;2024-01-27T05:20:42;-0.60;99.90
1468;DHT22;727;48.892;9.544;2024-01-27T05:23:08;-0.70;99.90
1468;DHT22;727;48.892;9.544;2024-01-27T05:25:35;-0.80;99.90
1468;DHT22;727;48.892;9.544;2024-01-27T05:28:02;-0.90;99.90
1468;DHT22;727;48.892;9.544;2024-01-27T05:30:29;-0.90;99.90
1468;DHT22;727;48.892;9.544;2024-01-27T05:32:57;-0.90;99.90
1468;DHT22;727;48.892;9.544;2024-01-27T05:35:23;-0.90;99.90
1468;DHT22;727;48.892;9.544;2024-01-27T05:37:50;-0.90;99.90
1468;DHT22;727;48.892;9.544;2024-01-27T05:40:17;-0.90;99.90
1468;DHT22;727;48.892;9.544;2024-01-27T05:42:44;-0.90;99.90
1468;DHT22;727;48.892;9.544;2024-01-27T05:45:11;-1.00;99.90
1468;DHT22;727;48.892;9.544;2024-01-27T05:47:38;-1.10;99.90
1468;DHT22;727;48.892;9.544;2024-01-27T05:50:07;-1.10;99.90
1468;DHT22;727;48.892;9.544;2024-01-27T05:52:34;-1.20;99.90
1468;DHT22;727;48.892;9.544;2024-01-27T05:55:01;-1.20;99.90
1468;DHT22;727;48.892;9.544;2024-01-27T05:57:28;-1.30;99.90
1468;DHT22;727;48.892;9.544;2024-01-27T05:59:56;-1.30;99.90
1468;DHT22;727;48.892;9.544;2024-01-27T06:02:23;-1.40;99.90
1468;DHT22;727;48.892;9.544;2024-01-27T06:04:51;-1.30;99.90
1468;DHT22;727;48.892;9.544;2024-01-27T06:07:19;-1.40;99.90
1468;DHT22;727;48.892;9.544;2024-01-27T06:09:45;-1.30;99.90
1468;DHT22;727;48.892;9.544;2024-01-27T06:12:12;-1.40;99.90
1468;DHT22;727;48.892;9.544;2024-01-27T06:14:40;-1.40;99.90
1468;DHT22;727;48.892;9.544;2024-01-27T06:17:07;-1.50;99.90
1468;DHT22;727;48.892;9.544;2024-01-27T06:19:34;-1.50;99.90
1468;DHT22;727;48.892;9.544;2024-01-27T06:22:00;-1.50;99.90
1468;DHT22;727;48.892;9.544;2024-01-27T06:24:29;-1.50;99.90
1468;DHT22;727;48.892;9.544;2024-01-27T06:26:56;-1.60;99.90
1468;DHT22;727;48.892;9.544;2024-01-27T06:29:23;-1.50;99.90
1468;DHT22;727;48.892;9.544;2024-01-27T06:31:51;-1.50;99.90
1468;DHT22;727;48.892;9.544;2024-01-27T06:34:17;-1.50;99.90
1468;DHT22;727;48.892;9.544;2024-01-27T06:36:44;-1.40;99.90
1468;DHT22;727;48.892;9.544;2024-01-27T06:39:11;-1.30;99.90
1468;DHT22;727;48.892;9.544;2024-01-27T06:41:38;-1.40;99.90
1468;DHT22;727;48.892;9.544;2024-01-27T06:44:05;-1.40;99.90
1468;DHT22;727;48.892;9.544;2024-01-27T06:46:33;-1.40;99.90
1468;DHT22;727;48.892;9.544;2024-01-27T06:48:59;-1.50;99.90
1468;DHT22;727;48.892;9.544;2024-01-27T06:51:27;-1.50;99.90
1468;DHT22;727;48.892;9.544;2024-01-27T06:53:54;-1.60;99.90
1468;DHT22;727;48.892;9.544;2024-01-27T06:56:20;-1.60;99.90
1468;DHT22;727;48.892;9.544;2024-01-27T06:58:48;-1.60;99.90
1468;DHT22;727;48.892;9.544;2024-01-27T07:01:15;-1.60;99.90
1468;DHT22;727;48.892;9.544;2024-01-27T07:03:42;-1.60;99.90
1468;DHT22;727;48.892;9.544;2024-01-27T07:06:10;-1.70;99.90
1468;DHT22;727;48.892;9.544;2024-01-27T07:08:36;-1.70;99.90
1468;DHT22;727;48.892;9.544;2024-01-27T07:11:03;-1.70;99.90
1468;DHT22;727;48.892;9.544;2024-01-27T07:13:30;-1.60;99.90
1468;DHT22;727;48.892;9.544;2024-01-27T07:15:58;-1.60;99.90
1468;DHT22;727;48.892;9.544;2024-01-27T07:18:25;-1.60;99.90
1468;DHT22;727;48.892;9.544;2024-01-27T07:20:52;-1.60;99.90
1468;DHT22;727;48.892;9.544;2024-01-27T07:23:20;-1.60;99.90
1468;DHT22;727;48.892;9.544;2024-01-27T07:25:47;-1.60;99.90
1468;DHT22;727;48.892;9.544;2024-01-27T07:28:13;-1.60;99.90
1468;DHT22;727;48.892;9.544;2024-01-27T07:30:41;-1.60;99.90
1468;DHT22;727;48.892;9.544;2024-01-27T07:33:09;-1.50;99.90
1468;DHT22;727;48.892;9.544;2024-01-27T07:35:36;-1.50;99.90
1468;DHT22;727;48.892;9.544;2024-01-27T07:38:03;-1.50;99.90
1468;DHT22;727;48.892;9.544;2024-01-27T07:40:29;-1.40;99.90
1468;DHT22;727;48.892;9.544;2024-01-27T07:42:56;-1.30;99.90
1468;DHT22;727;48.892;9.544;2024-01-27T07:45:23;-1.30;99.90
1468;DHT22;727;48.892;9.544;2024-01-27T07:47:50;-1.30;99.90
1468;DHT22;727;48.892;9.544;2024-01-27T07:50:18;-1.20;99.90
1468;DHT22;727;48.892;9.544;2024-01-27T07:52:45;-1.00;99.90
1468;DHT22;727;48.892;9.544;2024-01-27T07:55:11;-0.60;99.90
1468;DHT22;727;48.892;9.544;2024-01-27T07:57:38;-0.10;99.90
1468;DHT22;727;48.892;9.544;2024-01-27T08:00:06;0.90;99.90
1468;DHT22;727;48.892;9.544;2024-01-27T08:02:32;2.00;99.90
1468;DHT22;727;48.892;9.544;2024-01-27T08:04:59;2.60;99.90
1468;DHT22;727;48.892;9.544;2024-01-27T08:07:27;3.10;99.90
1468;DHT22;727;48.892;9.544;2024-01-27T08:09:54;3.50;99.90
1468;DHT22;727;48.892;9.544;2024-01-27T08:12:22;3.70;99.90
1468;DHT22;727;48.892;9.544;2024-01-27T08:14:48;3.70;99.90
1468;DHT22;727;48.892;9.544;2024-01-27T08:17:15;3.80;99.90
1468;DHT22;727;48.892;9.544;2024-01-27T08:19:42;4.30;99.90
1468;DHT22;727;48.892;9.544;2024-01-27T08:22:08;4.80;99.90
1468;DHT22;727;48.892;9.544;2024-01-27T08:24:36;5.90;99.90
1468;DHT22;727;48.892;9.544;2024-01-27T08:27:04;6.50;99.90
1468;DHT22;727;48.892;9.544;2024-01-27T08:29:31;6.90;99.90
1468;DHT22;727;48.892;9.544;2024-01-27T08:31:58;7.70;99.90
1468;DHT22;727;48.892;9.544;2024-01-27T08:34:25;8.60;99.20
1468;DHT22;727;48.892;9.544;2024-01-27T08:36:51;9.40;96.80
1468;DHT22;727;48.892;9.544;2024-01-27T08:39:18;10.30;93.20
1468;DHT22;727;48.892;9.544;2024-01-27T08:41:46;10.20;91.20
1468;DHT22;727;48.892;9.544;2024-01-27T08:44:13;10.00;88.10
1468;DHT22;727;48.892;9.544;2024-01-27T08:46:39;9.80;90.00
1468;DHT22;727;48.892;9.544;2024-01-27T08:49:06;9.90;89.80
1468;DHT22;727;48.892;9.544;2024-01-27T08:51:32;10.70;87.40
1468;DHT22;727;48.892;9.544;2024-01-27T08:54:00;11.30;85.90
1468;DHT22;727;48.892;9.544;2024-01-27T08:56:28;11.50;82.90
1468;DHT22;727;48.892;9.544;2024-01-27T08:58:56;11.70;82.00
1468;DHT22;727;48.892;9.544;2024-01-27T09:01:23;11.60;81.70
1468;DHT22;727;48.892;9.544;2024-01-27T09:03:49;11.80;81.70
1468;DHT22;727;48.892;9.544;2024-01-27T09:06:16;11.60;80.70
1468;DHT22;727;48.892;9.544;2024-01-27T09:08:44;11.60;81.50
1468;DHT22;727;48.892;9.544;2024-01-27T09:11:11;12.40;80.00
1468;DHT22;727;48.892;9.544;2024-01-27T09:13:37;12.20;79.70
1468;DHT22;727;48.892;9.544;2024-01-27T09:16:06;12.20;78.50
1468;DHT22;727;48.892;9.544;2024-01-27T09:18:33;12.00;79.50
1468;DHT22;727;48.892;9.544;2024-01-27T09:20:59;12.50;77.90
1468;DHT22;727;48.892;9.544;2024-01-27T09:23:26;12.60;78.60
1468;DHT22;727;48.892;9.544;2024-01-27T09:25:53;13.00;77.00
1468;DHT22;727;48.892;9.544;2024-01-27T09:28:19;13.10;76.90
1468;DHT22;727;48.892;9.544;2024-01-27T09:30:46;13.20;75.50
1468;DHT22;727;48.892;9.544;2024-01-27T09:33:14;13.50;76.50
1468;DHT22;727;48.892;9.544;2024-01-27T09:35:42;13.70;74.30
1468;DHT22;727;48.892;9.544;2024-01-27T09:38:09;13.00;75.60
1468;DHT22;727;48.892;9.544;2024-01-27T09:40:38;12.90;75.50
1468;DHT22;727;48.892;9.544;2024-01-27T09:43:05;13.40;76.20
1468;DHT22;727;48.892;9.544;2024-01-27T09:45:32;13.50;75.00
1468;DHT22;727;48.892;9.544;2024-01-27T09:48:00;14.40;73.70
1468;DHT22;727;48.892;9.544;2024-01-27T09:50:28;14.80;72.10
1468;DHT22;727;48.892;9.544;2024-01-27T09:52:55;15.00;71.70
1468;DHT22;727;48.892;9.544;2024-01-27T09:55:22;14.80;72.80
1468;DHT22;727;48.892;9.544;2024-01-27T09:57:48;14.60;73.00
1468;DHT22;727;48.892;9.544;2024-01-27T10:00:15;15.00;71.20
1468;DHT22;727;48.892;9.544;2024-01-27T10:02:43;15.20;72.30
1468;DHT22;727;48.892;9.544;2024-01-27T10:05:12;15.00;72.60
1468;DHT22;727;48.892;9.544;2024-01-27T10:07:41;14.90;72.00
1468;DHT22;727;48.892;9.544;2024-01-27T10:10:08;14.90;72.00
1468;DHT22;727;48.892;9.544;2024-01-27T10:12:39;15.80;71.40
1468;DHT22;727;48.892;9.544;2024-01-27T10:15:06;15.40;70.30
1468;DHT22;727;48.892;9.544;2024-01-27T10:17:33;15.70;69.40
1468;DHT22;727;48.892;9.544;2024-01-27T10:20:04;16.20;68.70
1468;DHT22;727;48.892;9.544;2024-01-27T10:22:41;15.90;68.00
1468;DHT22;727;48.892;9.544;2024-01-27T10:25:08;16.20;68.90
1468;DHT22;727;48.892;9.544;2024-01-27T10:27:35;16.30;69.60
1468;DHT22;727;48.892;9.544;2024-01-27T10:30:03;16.50;68.30
1468;DHT22;727;48.892;9.544;2024-01-27T10:32:30;16.70;66.90
1468;DHT22;727;48.892;9.544;2024-01-27T10:35:02;16.60;68.10
1468;DHT22;727;48.892;9.544;2024-01-27T10:37:29;16.50;67.50
1468;DHT22;727;48.892;9.544;2024-01-27T10:40:01;16.40;68.10
1468;DHT22;727;48.892;9.544;2024-01-27T10:42:29;16.90;68.40
1468;DHT22;727;48.892;9.544;2024-01-27T10:44:58;17.00;65.70
1468;DHT22;727;48.892;9.544;2024-01-27T10:47:27;17.40;64.50
1468;DHT22;727;48.892;9.544;2024-01-27T10:49:55;16.60;66.40
1468;DHT22;727;48.892;9.544;2024-01-27T10:52:23;17.10;66.90
1468;DHT22;727;48.892;9.544;2024-01-27T10:54:55;17.50;64.50
1468;DHT22;727;48.892;9.544;2024-01-27T10:57:26;17.40;63.90
1468;DHT22;727;48.892;9.544;2024-01-27T10:59:53;17.30;62.90
1468;DHT22;727;48.892;9.544;2024-01-27T11:02:22;17.80;63.80
1468;DHT22;727;48.892;9.544;2024-01-27T11:04:51;18.30;63.40
1468;DHT22;727;48.892;9.544;2024-01-27T11:07:19;18.10;62.70
1468;DHT22;727;48.892;9.544;2024-01-27T11:09:47;17.90;63.60
1468;DHT22;727;48.892;9.544;2024-01-27T11:12:15;18.00;62.80
1468;DHT22;727;48.892;9.544;2024-01-27T11:14:44;17.40;61.90
1468;DHT22;727;48.892;9.544;2024-01-27T11:17:11;17.10;61.00
1468;DHT22;727;48.892;9.544;2024-01-27T11:19:40;17.10;60.60
1468;DHT22;727;48.892;9.544;2024-01-27T11:22:07;17.70;61.00
1468;DHT22;727;48.892;9.544;2024-01-27T11:24:34;18.00;62.30
1468;DHT22;727;48.892;9.544;2024-01-27T11:27:01;17.90;61.80
1468;DHT22;727;48.892;9.544;2024-01-27T11:29:28;17.90;61.90
1468;DHT22;727;48.892;9.544;2024-01-27T11:32:01;18.20;62.40
1468;DHT22;727;48.892;9.544;2024-01-27T11:34:28;18.60;61.80
1468;DHT22;727;48.892;9.544;2024-01-27T11:37:11;19.40;59.70
1468;DHT22;727;48.892;9.544;2024-01-27T11:39:37;19.80;59.20
1468;DHT22;727;48.892;9.544;2024-01-27T11:42:05;20.00;58.70
1468;DHT22;727;48.892;9.544;2024-01-27T11:44:34;19.70;59.00
1468;DHT22;727;48.892;9.544;2024-01-27T11:47:02;19.40;59.50
1468;DHT22;727;48.892;9.544;2024-01-27T11:49:36;19.50;59.70
1468;DHT22;727;48.892;9.544;2024-01-27T11:52:03;20.30;57.90
1468;DHT22;727;48.892;9.544;2024-01-27T11:54:31;19.60;58.10
1468;DHT22;727;48.892;9.544;2024-01-27T11:56:57;19.10;58.10
1468;DHT22;727;48.892;9.544;2024-01-27T11:59:24;19.40;58.70
1468;DHT22;727;48.892;9.544;2024-01-27T12:01:51;19.40;57.60
1468;DHT22;727;48.892;9.544;2024-01-27T12:04:19;19.60;58.40
1468;DHT22;727;48.892;9.544;2024-01-27T12:06:47;19.30;58.40
1468;DHT22;727;48.892;9.544;2024-01-27T12:09:14;19.00;58.10
1468;DHT22;727;48.892;9.544;2024-01-27T12:11:42;18.90;58.60
1468;DHT22;727;48.892;9.544;2024-01-27T12:14:09;19.10;58.30
1468;DHT22;727;48.892;9.544;2024-01-27T12:16:36;18.30;59.20
1468;DHT22;727;48.892;9.544;2024-01-27T12:19:03;18.30;59.50
1468;DHT22;727;48.892;9.544;2024-01-27T12:21:31;18.60;59.40
1468;DHT22;727;48.892;9.544;2024-01-27T12:23:58;18.80;58.40
1468;DHT22;727;48.892;9.544;2024-01-27T12:26:29;18.40;58.00
1468;DHT22;727;48.892;9.544;2024-01-27T12:28:56;18.50;58.20
1468;DHT22;727;48.892;9.544;2024-01-27T12:31:23;18.90;57.00
1468;DHT22;727;48.892;9.544;2024-01-27T12:33:52;18.60;57.20
1468;DHT22;727;48.892;9.544;2024-01-27T12:36:20;18.30;57.10
1468;DHT22;727;48.892;9.544;2024-01-27T12:38:54;19.20;57.30
1468;DHT22;727;48.892;9.544;2024-01-27T12:41:21;19.00;58.20
1468;DHT22;727;48.892;9.544;2024-01-27T12:43:48;19.20;57.50
1468;DHT22;727;48.892;9.544;2024-01-27T12:46:15;19.20;57.20
1468;DHT22;727;48.892;9.544;2024-01-27T12:48:42;18.70;57.60
1468;DHT22;727;48.892;9.544;2024-01-27T12:51:09;19.20;57.80
1468;DHT22;727;48.892;9.544;2024-01-27T12:53:36;19.40;57.00
1468;DHT22;727;48.892;9.544;2024-01-27T12:56:05;19.00;57.10
1468;DHT22;727;48.892;9.544;2024-01-27T12:58:32;19.00;56.80
1468;DHT22;727;48.892;9.544;2024-01-27T13:00:59;19.50;56.70
1468;DHT22;727;48.892;9.544;2024-01-27T13:03:26;19.80;56.30
1468;DHT22;727;48.892;9.544;2024-01-27T13:05:53;19.80;56.90
1468;DHT22;727;48.892;9.544;2024-01-27T13:08:20;19.20;56.50
1468;DHT22;727;48.892;9.544;2024-01-27T13:10:47;19.10;56.80
1468;DHT22;727;48.892;9.544;2024-01-27T13:13:15;18.80;56.60
1468;DHT22;727;48.892;9.544;2024-01-27T13:15:42;19.10;56.30
1468;DHT22;727;48.892;9.544;2024-01-27T13:18:11;19.40;56.90
1468;DHT22;727;48.892;9.544;2024-01-27T13:20:38;19.70;56.10
1468;DHT22;727;48.892;9.544;2024-01-27T13:23:05;19.50;56.00
1468;DHT22;727;48.892;9.544;2024-01-27T13:25:32;18.70;56.70
1468;DHT22;727;48.892;9.544;2024-01-27T13:27:59;18.90;56.40
1468;DHT22;727;48.892;9.544;2024-01-27T13:30:27;19.30;55.60
1468;DHT22;727;48.892;9.544;2024-01-27T13:32:54;18.80;55.80
1468;DHT22;727;48.892;9.544;2024-01-27T13:35:21;18.80;57.00
1468;DHT22;727;48.892;9.544;2024-01-27T13:37:47;19.00;56.80
1468;DHT22;727;48.892;9.544;2024-01-27T13:40:14;19.00;56.80
1468;DHT22;727;48.892;9.544;2024-01-27T13:42:41;19.20;56.10
1468;DHT22;727;48.892;9.544;2024-01-27T13:45:08;18.60;56.30
1468;DHT22;727;48.892;9.544;2024-01-27T13:47:37;18.10;56.70
1468;DHT22;727;48.892;9.544;2024-01-27T13:50:05;18.40;56.70
1468;DHT22;727;48.892;9.544;2024-01-27T13:52:32;18.00;55.70
1468;DHT22;727;48.892;9.544;2024-01-27T13:54:59;17.70;57.20
1468;DHT22;727;48.892;9.544;2024-01-27T13:57:26;17.20;57.60
1468;DHT22;727;48.892;9.544;2024-01-27T13:59:53;17.50;57.60
1468;DHT22;727;48.892;9.544;2024-01-27T14:02:19;17.50;56.90
1468;DHT22;727;48.892;9.544;2024-01-27T14:04:48;17.20;56.00
1468;DHT22;727;48.892;9.544;2024-01-27T14:07:15;17.20;55.20
1468;DHT22;727;48.892;9.544;2024-01-27T14:09:43;17.70;55.60
1468;DHT22;727;48.892;9.544;2024-01-27T14:12:10;17.70;56.70
1468;DHT22;727;48.892;9.544;2024-01-27T14:14:37;17.00;58.80
1468;DHT22;727;48.892;9.544;2024-01-27T14:17:07;16.70;59.30
1468;DHT22;727;48.892;9.544;2024-01-27T14:19:35;16.30;59.80
1468;DHT22;727;48.892;9.544;2024-01-27T14:22:04;15.90;60.20
1468;DHT22;727;48.892;9.544;2024-01-27T14:24:31;14.80;62.30
1468;DHT22;727;48.892;9.544;2024-01-27T14:26:59;13.60;66.00
1468;DHT22;727;48.892;9.544;2024-01-27T14:29:26;12.50;68.40
1468;DHT22;727;48.892;9.544;2024-01-27T14:31:52;11.50;70.90
1468;DHT22;727;48.892;9.544;2024-01-27T14:34:19;11.00;71.80
1468;DHT22;727;48.892;9.544;2024-01-27T14:36:45;10.60;73.10
1468;DHT22;727;48.892;9.544;2024-01-27T14:39:14;10.20;75.50
1468;DHT22;727;48.892;9.544;2024-01-27T14:41:40;10.00;76.30
1468;DHT22;727;48.892;9.544;2024-01-27T14:44:07;9.80;77.50
1468;DHT22;727;48.892;9.544;2024-01-27T14:46:34;9.60;77.30
1468;DHT22;727;48.892;9.544;2024-01-27T14:49:05;9.40;79.10
1468;DHT22;727;48.892;9.544;2024-01-27T14:51:33;9.20;81.70
1468;DHT22;727;48.892;9.544;2024-01-27T14:54:00;8.90;81.90
1468;DHT22;727;48.892;9.544;2024-01-27T14:56:30;8.70;82.90
1468;DHT22;727;48.892;9.544;2024-01-27T14:58:57;8.60;85.20
1468;DHT22;727;48.892;9.544;2024-01-27T15:01:24;8.40;86.20
1468;DHT22;727;48.892;9.544;2024-01-27T15:03:52;8.30;87.90
1468;DHT22;727;48.892;9.544;2024-01-27T15:06:19;8.00;89.10
1468;DHT22;727;48.892;9.544;2024-01-27T15:08:46;7.80;90.10
1468;DHT22;727;48.892;9.544;2024-01-27T15:11:12;7.80;90.80
1468;DHT22;727;48.892;9.544;2024-01-27T15:13:40;7.60;91.40
1468;DHT22;727;48.892;9.544;2024-01-27T15:16:07;7.40;92.30
1468;DHT22;727;48.892;9.544;2024-01-27T15:18:33;7.30;93.00
1468;DHT22;727;48.892;9.544;2024-01-27T15:21:03;7.10;93.80
1468;DHT22;727;48.892;9.544;2024-01-27T15:23:29;7.10;94.50
1468;DHT22;727;48.892;9.544;2024-01-27T15:25:56;7.00;95.10
1468;DHT22;727;48.892;9.544;2024-01-27T15:28:23;6.80;95.60
1468;DHT22;727;48.892;9.544;2024-01-27T15:30:52;6.70;96.20
1468;DHT22;727;48.892;9.544;2024-01-27T15:33:18;6.50;96.80
1468;DHT22;727;48.892;9.544;2024-01-27T15:35:45;6.50;98.00
1468;DHT22;727;48.892;9.544;2024-01-27T15:38:11;6.20;98.20
1468;DHT22;727;48.892;9.544;2024-01-27T15:40:38;6.00;99.00
1468;DHT22;727;48.892;9.544;2024-01-27T15:43:05;5.80;99.60
1468;DHT22;727;48.892;9.544;2024-01-27T15:45:31;5.70;99.90
1468;DHT22;727;48.892;9.544;2024-01-27T15:48:00;5.50;99.90
1468;DHT22;727;48.892;9.544;2024-01-27T15:50:26;5.40;99.90
1468;DHT22;727;48.892;9.544;2024-01-27T15:52:53;5.20;99.90
1468;DHT22;727;48.892;9.544;2024-01-27T15:55:20;5.00;99.90
1468;DHT22;727;48.892;9.544;2024-01-27T15:57:47;4.90;99.90
1468;DHT22;727;48.892;9.544;2024-01-27T16:00:14;4.70;99.90
1468;DHT22;727;48.892;9.544;2024-01-27T16:02:42;4.60;99.90
1468;DHT22;727;48.892;9.544;2024-01-27T16:05:10;4.50;99.90
1468;DHT22;727;48.892;9.544;2024-01-27T16:07:36;4.30;99.90
1468;DHT22;727;48.892;9.544;2024-01-27T16:10:03;4.20;99.90
1468;DHT22;727;48.892;9.544;2024-01-27T16:12:30;4.10;99.90
1468;DHT22;727;48.892;9.544;2024-01-27T16:14:58;3.90;99.90
1468;DHT22;727;48.892;9.544;2024-01-27T16:17:24;3.90;99.90
1468;DHT22;727;48.892;9.544;2024-01-27T16:19:51;3.90;99.90
1468;DHT22;727;48.892;9.544;2024-01-27T16:22:20;3.80;99.90